sensor_id;sensor_type;location;lat;lon;timestamp;P1;durP1;ratioP1;P2;durP2;ratioP2
58055;SDS011;53159;55.152;36.614;2022-08-20T00:00:40;14.30;;;9.70;;
58055;SDS011;53159;55.152;36.614;2022-08-20T00:03:15;15.45;;;12.20;;
58055;SDS011;53159;55.152;36.614;2022-08-20T00:05:46;19.90;;;11.15;;
58055;SDS011;53159;55.152;36.614;2022-08-20T00:08:18;15.70;;;10.65;;
58055;SDS011;53159;55.152;36.614;2022-08-20T00:10:47;18.00;;;12.00;;
58055;SDS011;53159;55.152;36.614;2022-08-20T00:13:18;16.30;;;10.20;;
58055;SDS011;53159;55.152;36.614;2022-08-20T00:15:47;14.45;;;10.68;;
58055;SDS011;53159;55.152;36.614;2022-08-20T00:18:14;13.35;;;9.57;;
58055;SDS011;53159;55.152;36.614;2022-08-20T00:20:43;17.73;;;9.55;;
58055;SDS011;53159;55.152;36.614;2022-08-20T00:23:12;14.73;;;11.45;;
58055;SDS011;53159;55.152;36.614;2022-08-20T00:25:40;24.77;;;11.00;;
58055;SDS011;53159;55.152;36.614;2022-08-20T00:28:07;16.90;;;10.18;;
58055;SDS011;53159;55.152;36.614;2022-08-20T00:30:35;22.52;;;11.50;;
58055;SDS011;53159;55.152;36.614;2022-08-20T00:33:05;18.52;;;11.50;;
58055;SDS011;53159;55.152;36.614;2022-08-20T00:35:39;12.90;;;9.70;;
58055;SDS011;53159;55.152;36.614;2022-08-20T00:38:09;17.40;;;10.32;;
58055;SDS011;53159;55.152;36.614;2022-08-20T00:40:39;14.55;;;9.50;;
58055;SDS011;53159;55.152;36.614;2022-08-20T00:46:02;14.38;;;8.82;;
58055;SDS011;53159;55.152;36.614;2022-08-20T00:48:34;15.23;;;8.82;;
58055;SDS011;53159;55.152;36.614;2022-08-20T00:51:04;14.07;;;9.70;;
58055;SDS011;53159;55.152;36.614;2022-08-20T00:53:38;14.15;;;8.77;;
58055;SDS011;53159;55.152;36.614;2022-08-20T00:56:06;12.15;;;8.88;;
58055;SDS011;53159;55.152;36.614;2022-08-20T00:58:35;12.55;;;9.15;;
58055;SDS011;53159;55.152;36.614;2022-08-20T01:01:05;11.85;;;8.80;;
58055;SDS011;53159;55.152;36.614;2022-08-20T01:03:34;13.95;;;8.77;;
58055;SDS011;53159;55.152;36.614;2022-08-20T01:06:01;16.05;;;8.05;;
58055;SDS011;53159;55.152;36.614;2022-08-20T01:08:28;14.50;;;8.35;;
58055;SDS011;53159;55.152;36.614;2022-08-20T01:10:56;12.68;;;9.63;;
58055;SDS011;53159;55.152;36.614;2022-08-20T01:13:33;12.05;;;8.98;;
58055;SDS011;53159;55.152;36.614;2022-08-20T01:16:05;14.70;;;9.15;;
58055;SDS011;53159;55.152;36.614;2022-08-20T01:18:43;15.02;;;8.13;;
58055;SDS011;53159;55.152;36.614;2022-08-20T01:21:13;19.13;;;9.15;;
58055;SDS011;53159;55.152;36.614;2022-08-20T01:24:06;11.10;;;7.88;;
58055;SDS011;53159;55.152;36.614;2022-08-20T01:26:54;16.60;;;9.73;;
58055;SDS011;53159;55.152;36.614;2022-08-20T01:29:23;12.88;;;8.32;;
58055;SDS011;53159;55.152;36.614;2022-08-20T01:31:54;18.48;;;9.02;;
58055;SDS011;53159;55.152;36.614;2022-08-20T01:34:26;11.07;;;7.55;;
58055;SDS011;53159;55.152;36.614;2022-08-20T01:36:54;17.75;;;8.50;;
58055;SDS011;53159;55.152;36.614;2022-08-20T01:39:24;7.50;;;6.80;;
58055;SDS011;53159;55.152;36.614;2022-08-20T01:44:45;12.55;;;8.10;;
58055;SDS011;53159;55.152;36.614;2022-08-20T01:47:15;13.73;;;7.25;;
58055;SDS011;53159;55.152;36.614;2022-08-20T01:49:47;12.05;;;7.28;;
58055;SDS011;53159;55.152;36.614;2022-08-20T01:53:05;10.27;;;7.18;;
58055;SDS011;53159;55.152;36.614;2022-08-20T01:55:08;10.90;;;7.03;;
58055;SDS011;53159;55.152;36.614;2022-08-20T01:57:36;11.48;;;6.85;;
58055;SDS011;53159;55.152;36.614;2022-08-20T02:00:07;11.52;;;7.38;;
58055;SDS011;53159;55.152;36.614;2022-08-20T02:02:38;11.43;;;7.25;;
58055;SDS011;53159;55.152;36.614;2022-08-20T02:05:06;13.38;;;7.85;;
58055;SDS011;53159;55.152;36.614;2022-08-20T02:07:33;10.25;;;7.70;;
58055;SDS011;53159;55.152;36.614;2022-08-20T02:10:00;9.80;;;6.70;;
58055;SDS011;53159;55.152;36.614;2022-08-20T02:12:27;11.73;;;7.80;;
58055;SDS011;53159;55.152;36.614;2022-08-20T02:14:54;15.10;;;7.07;;
58055;SDS011;53159;55.152;36.614;2022-08-20T02:17:23;11.63;;;6.80;;
58055;SDS011;53159;55.152;36.614;2022-08-20T02:19:52;11.73;;;8.02;;
58055;SDS011;53159;55.152;36.614;2022-08-20T02:25:00;13.27;;;7.22;;
58055;SDS011;53159;55.152;36.614;2022-08-20T02:27:30;12.40;;;8.02;;
58055;SDS011;53159;55.152;36.614;2022-08-20T02:30:07;13.37;;;7.63;;
58055;SDS011;53159;55.152;36.614;2022-08-20T02:32:40;17.08;;;7.85;;
58055;SDS011;53159;55.152;36.614;2022-08-20T02:35:08;9.40;;;6.72;;
58055;SDS011;53159;55.152;36.614;2022-08-20T02:37:40;10.75;;;6.85;;
58055;SDS011;53159;55.152;36.614;2022-08-20T02:40:08;10.85;;;6.82;;
58055;SDS011;53159;55.152;36.614;2022-08-20T02:42:39;8.48;;;7.03;;
58055;SDS011;53159;55.152;36.614;2022-08-20T02:45:11;9.65;;;7.70;;
58055;SDS011;53159;55.152;36.614;2022-08-20T02:47:41;11.02;;;7.47;;
58055;SDS011;53159;55.152;36.614;2022-08-20T02:50:12;10.30;;;7.38;;
58055;SDS011;53159;55.152;36.614;2022-08-20T02:52:42;12.88;;;7.35;;
58055;SDS011;53159;55.152;36.614;2022-08-20T02:55:12;10.88;;;6.65;;
58055;SDS011;53159;55.152;36.614;2022-08-20T02:57:41;10.68;;;6.47;;
58055;SDS011;53159;55.152;36.614;2022-08-20T03:00:10;8.93;;;6.63;;
58055;SDS011;53159;55.152;36.614;2022-08-20T03:02:45;13.73;;;8.55;;
58055;SDS011;53159;55.152;36.614;2022-08-20T03:05:13;14.77;;;7.45;;
58055;SDS011;53159;55.152;36.614;2022-08-20T03:07:42;12.57;;;6.80;;
58055;SDS011;53159;55.152;36.614;2022-08-20T03:10:14;11.30;;;6.85;;
58055;SDS011;53159;55.152;36.614;2022-08-20T03:12:42;18.35;;;7.30;;
58055;SDS011;53159;55.152;36.614;2022-08-20T03:15:09;7.97;;;5.30;;
58055;SDS011;53159;55.152;36.614;2022-08-20T03:17:37;7.75;;;6.60;;
58055;SDS011;53159;55.152;36.614;2022-08-20T03:20:06;14.63;;;7.45;;
58055;SDS011;53159;55.152;36.614;2022-08-20T03:22:34;13.65;;;6.90;;
58055;SDS011;53159;55.152;36.614;2022-08-20T03:25:02;15.20;;;6.53;;
58055;SDS011;53159;55.152;36.614;2022-08-20T03:27:29;11.95;;;6.47;;
58055;SDS011;53159;55.152;36.614;2022-08-20T03:29:57;10.77;;;6.15;;
58055;SDS011;53159;55.152;36.614;2022-08-20T03:32:24;10.30;;;6.25;;
58055;SDS011;53159;55.152;36.614;2022-08-20T03:34:50;8.63;;;6.07;;
58055;SDS011;53159;55.152;36.614;2022-08-20T03:37:18;11.65;;;6.30;;
58055;SDS011;53159;55.152;36.614;2022-08-20T03:39:44;18.08;;;6.22;;
58055;SDS011;53159;55.152;36.614;2022-08-20T03:42:12;11.18;;;6.32;;
58055;SDS011;53159;55.152;36.614;2022-08-20T03:44:40;10.98;;;4.93;;
58055;SDS011;53159;55.152;36.614;2022-08-20T03:47:06;12.20;;;5.18;;
58055;SDS011;53159;55.152;36.614;2022-08-20T03:49:35;9.43;;;5.10;;
58055;SDS011;53159;55.152;36.614;2022-08-20T03:52:03;11.77;;;6.07;;
58055;SDS011;53159;55.152;36.614;2022-08-20T03:54:29;23.33;;;13.88;;
58055;SDS011;53159;55.152;36.614;2022-08-20T03:56:57;13.70;;;5.05;;
58055;SDS011;53159;55.152;36.614;2022-08-20T03:59:25;11.25;;;5.68;;
58055;SDS011;53159;55.152;36.614;2022-08-20T04:01:53;9.57;;;6.00;;
58055;SDS011;53159;55.152;36.614;2022-08-20T04:04:20;17.60;;;5.90;;
58055;SDS011;53159;55.152;36.614;2022-08-20T04:06:47;9.85;;;6.35;;
58055;SDS011;53159;55.152;36.614;2022-08-20T04:09:14;9.23;;;5.38;;
58055;SDS011;53159;55.152;36.614;2022-08-20T04:11:40;13.45;;;7.90;;
58055;SDS011;53159;55.152;36.614;2022-08-20T04:14:07;46.33;;;8.00;;
58055;SDS011;53159;55.152;36.614;2022-08-20T04:16:36;12.55;;;5.70;;
58055;SDS011;53159;55.152;36.614;2022-08-20T04:19:06;12.18;;;6.55;;
58055;SDS011;53159;55.152;36.614;2022-08-20T04:21:33;17.52;;;8.05;;
58055;SDS011;53159;55.152;36.614;2022-08-20T04:24:03;9.00;;;4.85;;
58055;SDS011;53159;55.152;36.614;2022-08-20T04:26:50;8.13;;;5.18;;
58055;SDS011;53159;55.152;36.614;2022-08-20T04:29:17;12.63;;;5.53;;
58055;SDS011;53159;55.152;36.614;2022-08-20T04:31:45;10.80;;;5.38;;
58055;SDS011;53159;55.152;36.614;2022-08-20T04:34:11;8.85;;;5.28;;
58055;SDS011;53159;55.152;36.614;2022-08-20T04:36:38;8.85;;;4.90;;
58055;SDS011;53159;55.152;36.614;2022-08-20T04:39:05;9.52;;;4.32;;
58055;SDS011;53159;55.152;36.614;2022-08-20T04:41:32;11.35;;;5.00;;
58055;SDS011;53159;55.152;36.614;2022-08-20T04:43:59;7.15;;;4.47;;
58055;SDS011;53159;55.152;36.614;2022-08-20T04:46:26;18.50;;;5.53;;
58055;SDS011;53159;55.152;36.614;2022-08-20T04:48:54;9.90;;;5.90;;
58055;SDS011;53159;55.152;36.614;2022-08-20T04:51:22;13.57;;;4.68;;
58055;SDS011;53159;55.152;36.614;2022-08-20T04:53:51;11.35;;;4.18;;
58055;SDS011;53159;55.152;36.614;2022-08-20T04:56:23;11.48;;;5.35;;
58055;SDS011;53159;55.152;36.614;2022-08-20T04:58:53;10.45;;;3.58;;
58055;SDS011;53159;55.152;36.614;2022-08-20T05:01:22;56.95;;;8.98;;
58055;SDS011;53159;55.152;36.614;2022-08-20T05:03:51;11.40;;;4.32;;
58055;SDS011;53159;55.152;36.614;2022-08-20T05:06:38;10.15;;;4.97;;
58055;SDS011;53159;55.152;36.614;2022-08-20T05:09:06;6.40;;;3.67;;
58055;SDS011;53159;55.152;36.614;2022-08-20T05:11:33;7.35;;;4.07;;
58055;SDS011;53159;55.152;36.614;2022-08-20T05:14:00;11.40;;;4.57;;
58055;SDS011;53159;55.152;36.614;2022-08-20T05:16:27;10.45;;;4.60;;
58055;SDS011;53159;55.152;36.614;2022-08-20T05:18:55;11.77;;;3.95;;
58055;SDS011;53159;55.152;36.614;2022-08-20T05:21:21;5.35;;;4.10;;
58055;SDS011;53159;55.152;36.614;2022-08-20T05:23:48;11.38;;;4.18;;
58055;SDS011;53159;55.152;36.614;2022-08-20T05:26:15;7.75;;;3.85;;
58055;SDS011;53159;55.152;36.614;2022-08-20T05:28:44;16.60;;;4.70;;
58055;SDS011;53159;55.152;36.614;2022-08-20T05:31:11;17.40;;;4.32;;
58055;SDS011;53159;55.152;36.614;2022-08-20T05:33:38;12.40;;;4.03;;
58055;SDS011;53159;55.152;36.614;2022-08-20T05:36:06;11.93;;;4.20;;
58055;SDS011;53159;55.152;36.614;2022-08-20T05:38:34;8.70;;;3.70;;
58055;SDS011;53159;55.152;36.614;2022-08-20T05:41:01;15.13;;;5.20;;
58055;SDS011;53159;55.152;36.614;2022-08-20T05:43:31;17.15;;;4.50;;
58055;SDS011;53159;55.152;36.614;2022-08-20T05:45:59;11.32;;;4.20;;
58055;SDS011;53159;55.152;36.614;2022-08-20T05:51:14;21.55;;;5.22;;
58055;SDS011;53159;55.152;36.614;2022-08-20T05:53:41;27.02;;;6.65;;
58055;SDS011;53159;55.152;36.614;2022-08-20T05:56:08;34.00;;;6.35;;
58055;SDS011;53159;55.152;36.614;2022-08-20T05:58:38;44.08;;;7.80;;
58055;SDS011;53159;55.152;36.614;2022-08-20T06:01:04;13.63;;;6.82;;
58055;SDS011;53159;55.152;36.614;2022-08-20T06:03:32;27.15;;;8.32;;
58055;SDS011;53159;55.152;36.614;2022-08-20T06:06:17;15.63;;;8.00;;
58055;SDS011;53159;55.152;36.614;2022-08-20T06:08:46;212.85;;;28.63;;
58055;SDS011;53159;55.152;36.614;2022-08-20T06:11:13;19.38;;;9.82;;
58055;SDS011;53159;55.152;36.614;2022-08-20T06:13:39;26.58;;;11.25;;
58055;SDS011;53159;55.152;36.614;2022-08-20T06:16:06;24.88;;;8.55;;
58055;SDS011;53159;55.152;36.614;2022-08-20T06:18:32;26.67;;;13.57;;
58055;SDS011;53159;55.152;36.614;2022-08-20T06:20:59;29.08;;;13.48;;
58055;SDS011;53159;55.152;36.614;2022-08-20T06:23:27;21.42;;;13.07;;
58055;SDS011;53159;55.152;36.614;2022-08-20T06:25:54;21.75;;;13.80;;
58055;SDS011;53159;55.152;36.614;2022-08-20T06:28:21;20.48;;;14.10;;
58055;SDS011;53159;55.152;36.614;2022-08-20T06:30:50;18.83;;;14.50;;
58055;SDS011;53159;55.152;36.614;2022-08-20T06:33:16;21.13;;;16.05;;
58055;SDS011;53159;55.152;36.614;2022-08-20T06:35:44;24.17;;;16.83;;
58055;SDS011;53159;55.152;36.614;2022-08-20T06:38:12;27.98;;;17.60;;
58055;SDS011;53159;55.152;36.614;2022-08-20T06:40:39;24.90;;;17.63;;
58055;SDS011;53159;55.152;36.614;2022-08-20T06:43:06;32.28;;;20.67;;
58055;SDS011;53159;55.152;36.614;2022-08-20T06:45:35;24.15;;;17.80;;
58055;SDS011;53159;55.152;36.614;2022-08-20T06:48:08;35.05;;;21.58;;
58055;SDS011;53159;55.152;36.614;2022-08-20T06:50:40;29.73;;;18.80;;
58055;SDS011;53159;55.152;36.614;2022-08-20T06:53:10;33.67;;;21.63;;
58055;SDS011;53159;55.152;36.614;2022-08-20T06:55:40;33.78;;;21.52;;
58055;SDS011;53159;55.152;36.614;2022-08-20T06:58:11;31.70;;;22.30;;
58055;SDS011;53159;55.152;36.614;2022-08-20T07:00:39;35.92;;;23.00;;
58055;SDS011;53159;55.152;36.614;2022-08-20T07:03:08;31.63;;;22.08;;
58055;SDS011;53159;55.152;36.614;2022-08-20T07:05:37;33.85;;;24.35;;
58055;SDS011;53159;55.152;36.614;2022-08-20T07:08:08;42.72;;;27.25;;
58055;SDS011;53159;55.152;36.614;2022-08-20T07:10:37;36.00;;;24.77;;
58055;SDS011;53159;55.152;36.614;2022-08-20T07:13:05;39.65;;;29.17;;
58055;SDS011;53159;55.152;36.614;2022-08-20T07:15:32;38.95;;;28.30;;
58055;SDS011;53159;55.152;36.614;2022-08-20T07:18:01;41.95;;;29.23;;
58055;SDS011;53159;55.152;36.614;2022-08-20T07:20:31;45.75;;;29.85;;
58055;SDS011;53159;55.152;36.614;2022-08-20T07:23:00;45.65;;;32.05;;
58055;SDS011;53159;55.152;36.614;2022-08-20T07:25:27;48.30;;;28.92;;
58055;SDS011;53159;55.152;36.614;2022-08-20T07:28:00;37.78;;;30.58;;
58055;SDS011;53159;55.152;36.614;2022-08-20T07:33:19;44.50;;;29.27;;
58055;SDS011;53159;55.152;36.614;2022-08-20T07:35:46;45.10;;;30.83;;
58055;SDS011;53159;55.152;36.614;2022-08-20T07:38:20;49.72;;;33.92;;
58055;SDS011;53159;55.152;36.614;2022-08-20T07:40:59;43.25;;;33.17;;
58055;SDS011;53159;55.152;36.614;2022-08-20T07:43:32;49.38;;;35.25;;
58055;SDS011;53159;55.152;36.614;2022-08-20T07:46:00;44.17;;;34.17;;
58055;SDS011;53159;55.152;36.614;2022-08-20T07:48:32;48.95;;;34.70;;
58055;SDS011;53159;55.152;36.614;2022-08-20T07:51:00;45.38;;;35.75;;
58055;SDS011;53159;55.152;36.614;2022-08-20T07:53:31;45.25;;;34.03;;
58055;SDS011;53159;55.152;36.614;2022-08-20T07:56:07;44.90;;;36.05;;
58055;SDS011;53159;55.152;36.614;2022-08-20T07:58:38;45.80;;;33.67;;
58055;SDS011;53159;55.152;36.614;2022-08-20T08:01:08;46.40;;;36.50;;
58055;SDS011;53159;55.152;36.614;2022-08-20T08:03:37;44.17;;;35.65;;
58055;SDS011;53159;55.152;36.614;2022-08-20T08:06:05;44.40;;;35.92;;
58055;SDS011;53159;55.152;36.614;2022-08-20T08:08:33;47.97;;;37.45;;
58055;SDS011;53159;55.152;36.614;2022-08-20T08:11:05;50.67;;;37.55;;
58055;SDS011;53159;55.152;36.614;2022-08-20T08:13:34;42.17;;;34.95;;
58055;SDS011;53159;55.152;36.614;2022-08-20T08:16:04;49.22;;;36.72;;
58055;SDS011;53159;55.152;36.614;2022-08-20T08:18:40;44.97;;;35.47;;
58055;SDS011;53159;55.152;36.614;2022-08-20T08:21:12;53.63;;;36.92;;
58055;SDS011;53159;55.152;36.614;2022-08-20T08:23:39;47.60;;;36.38;;
58055;SDS011;53159;55.152;36.614;2022-08-20T08:26:10;50.10;;;35.75;;
58055;SDS011;53159;55.152;36.614;2022-08-20T08:28:38;53.60;;;36.75;;
58055;SDS011;53159;55.152;36.614;2022-08-20T08:31:07;46.20;;;35.53;;
58055;SDS011;53159;55.152;36.614;2022-08-20T08:33:34;49.30;;;36.20;;
58055;SDS011;53159;55.152;36.614;2022-08-20T08:36:03;48.35;;;36.95;;
58055;SDS011;53159;55.152;36.614;2022-08-20T08:38:36;45.00;;;35.53;;
58055;SDS011;53159;55.152;36.614;2022-08-20T08:44:03;48.33;;;36.67;;
58055;SDS011;53159;55.152;36.614;2022-08-20T08:46:40;46.15;;;35.78;;
58055;SDS011;53159;55.152;36.614;2022-08-20T08:49:13;40.65;;;32.60;;
58055;SDS011;53159;55.152;36.614;2022-08-20T08:51:44;44.47;;;33.17;;
58055;SDS011;53159;55.152;36.614;2022-08-20T08:54:19;48.95;;;33.25;;
58055;SDS011;53159;55.152;36.614;2022-08-20T08:56:51;47.95;;;34.63;;
58055;SDS011;53159;55.152;36.614;2022-08-20T08:59:19;44.83;;;32.95;;
58055;SDS011;53159;55.152;36.614;2022-08-20T09:01:51;48.28;;;33.65;;
58055;SDS011;53159;55.152;36.614;2022-08-20T09:04:20;50.33;;;32.28;;
58055;SDS011;53159;55.152;36.614;2022-08-20T09:06:49;41.78;;;31.75;;
58055;SDS011;53159;55.152;36.614;2022-08-20T09:09:26;44.58;;;28.55;;
58055;SDS011;53159;55.152;36.614;2022-08-20T09:12:07;44.63;;;32.00;;
58055;SDS011;53159;55.152;36.614;2022-08-20T09:14:38;45.42;;;32.45;;
58055;SDS011;53159;55.152;36.614;2022-08-20T09:17:07;39.25;;;29.23;;
58055;SDS011;53159;55.152;36.614;2022-08-20T09:19:33;44.42;;;32.97;;
58055;SDS011;53159;55.152;36.614;2022-08-20T09:22:07;47.95;;;34.55;;
58055;SDS011;53159;55.152;36.614;2022-08-20T09:24:39;45.08;;;32.60;;
58055;SDS011;53159;55.152;36.614;2022-08-20T09:27:07;48.72;;;33.53;;
58055;SDS011;53159;55.152;36.614;2022-08-20T09:29:36;40.58;;;32.88;;
58055;SDS011;53159;55.152;36.614;2022-08-20T09:34:43;48.60;;;34.40;;
58055;SDS011;53159;55.152;36.614;2022-08-20T09:37:12;45.35;;;36.05;;
58055;SDS011;53159;55.152;36.614;2022-08-20T09:39:41;50.38;;;37.88;;
58055;SDS011;53159;55.152;36.614;2022-08-20T09:42:09;52.50;;;35.30;;
58055;SDS011;53159;55.152;36.614;2022-08-20T09:44:37;50.35;;;34.92;;
58055;SDS011;53159;55.152;36.614;2022-08-20T09:47:04;52.55;;;38.55;;
58055;SDS011;53159;55.152;36.614;2022-08-20T09:49:32;53.00;;;38.58;;
58055;SDS011;53159;55.152;36.614;2022-08-20T09:51:58;49.75;;;37.28;;
58055;SDS011;53159;55.152;36.614;2022-08-20T09:54:26;49.70;;;36.00;;
58055;SDS011;53159;55.152;36.614;2022-08-20T09:56:58;56.92;;;39.70;;
58055;SDS011;53159;55.152;36.614;2022-08-20T09:59:28;45.45;;;33.00;;
58055;SDS011;53159;55.152;36.614;2022-08-20T10:02:02;54.00;;;38.55;;
58055;SDS011;53159;55.152;36.614;2022-08-20T10:04:29;49.95;;;35.20;;
58055;SDS011;53159;55.152;36.614;2022-08-20T10:06:56;49.25;;;37.17;;
58055;SDS011;53159;55.152;36.614;2022-08-20T10:09:23;40.55;;;35.22;;
58055;SDS011;53159;55.152;36.614;2022-08-20T10:11:49;50.30;;;36.47;;
58055;SDS011;53159;55.152;36.614;2022-08-20T10:14:16;52.08;;;39.05;;
58055;SDS011;53159;55.152;36.614;2022-08-20T10:16:43;51.60;;;36.15;;
58055;SDS011;53159;55.152;36.614;2022-08-20T10:19:10;52.08;;;37.10;;
58055;SDS011;53159;55.152;36.614;2022-08-20T10:21:37;54.97;;;36.38;;
58055;SDS011;53159;55.152;36.614;2022-08-20T10:24:05;50.80;;;35.17;;
58055;SDS011;53159;55.152;36.614;2022-08-20T10:26:32;49.25;;;36.67;;
58055;SDS011;53159;55.152;36.614;2022-08-20T10:28:59;49.95;;;35.58;;
58055;SDS011;53159;55.152;36.614;2022-08-20T10:31:26;59.33;;;37.25;;
58055;SDS011;53159;55.152;36.614;2022-08-20T10:33:53;59.35;;;40.72;;
58055;SDS011;53159;55.152;36.614;2022-08-20T10:36:21;52.08;;;35.20;;
58055;SDS011;53159;55.152;36.614;2022-08-20T10:38:49;50.30;;;37.70;;
58055;SDS011;53159;55.152;36.614;2022-08-20T10:41:16;52.92;;;40.50;;
58055;SDS011;53159;55.152;36.614;2022-08-20T10:43:43;49.45;;;38.40;;
58055;SDS011;53159;55.152;36.614;2022-08-20T10:46:12;52.00;;;37.72;;
58055;SDS011;53159;55.152;36.614;2022-08-20T10:48:39;50.50;;;38.75;;
58055;SDS011;53159;55.152;36.614;2022-08-20T10:51:06;53.22;;;38.22;;
58055;SDS011;53159;55.152;36.614;2022-08-20T10:53:34;54.47;;;37.40;;
58055;SDS011;53159;55.152;36.614;2022-08-20T10:56:03;48.35;;;35.28;;
58055;SDS011;53159;55.152;36.614;2022-08-20T10:58:31;48.70;;;38.92;;
58055;SDS011;53159;55.152;36.614;2022-08-20T11:00:59;49.15;;;36.65;;
58055;SDS011;53159;55.152;36.614;2022-08-20T11:03:25;47.70;;;35.97;;
58055;SDS011;53159;55.152;36.614;2022-08-20T11:05:52;56.17;;;40.08;;
58055;SDS011;53159;55.152;36.614;2022-08-20T11:08:18;45.65;;;37.13;;
58055;SDS011;53159;55.152;36.614;2022-08-20T11:10:45;48.20;;;35.65;;
58055;SDS011;53159;55.152;36.614;2022-08-20T11:13:11;46.42;;;37.13;;
58055;SDS011;53159;55.152;36.614;2022-08-20T11:15:39;60.70;;;40.50;;
58055;SDS011;53159;55.152;36.614;2022-08-20T11:18:08;53.80;;;41.00;;
58055;SDS011;53159;55.152;36.614;2022-08-20T11:20:36;56.55;;;40.97;;
58055;SDS011;53159;55.152;36.614;2022-08-20T11:23:02;58.30;;;43.72;;
58055;SDS011;53159;55.152;36.614;2022-08-20T11:25:30;62.55;;;47.22;;
58055;SDS011;53159;55.152;36.614;2022-08-20T11:27:58;59.05;;;47.33;;
58055;SDS011;53159;55.152;36.614;2022-08-20T11:30:29;64.82;;;51.63;;
58055;SDS011;53159;55.152;36.614;2022-08-20T11:33:01;65.78;;;50.42;;
58055;SDS011;53159;55.152;36.614;2022-08-20T11:35:29;62.83;;;47.53;;
58055;SDS011;53159;55.152;36.614;2022-08-20T11:37:58;69.13;;;47.95;;
58055;SDS011;53159;55.152;36.614;2022-08-20T11:40:26;63.75;;;47.08;;
58055;SDS011;53159;55.152;36.614;2022-08-20T11:42:54;60.88;;;50.15;;
58055;SDS011;53159;55.152;36.614;2022-08-20T11:45:22;64.88;;;50.65;;
58055;SDS011;53159;55.152;36.614;2022-08-20T11:47:49;65.70;;;53.40;;
58055;SDS011;53159;55.152;36.614;2022-08-20T11:50:17;70.40;;;53.20;;
58055;SDS011;53159;55.152;36.614;2022-08-20T11:52:46;64.90;;;51.92;;
58055;SDS011;53159;55.152;36.614;2022-08-20T11:55:14;63.88;;;50.38;;
58055;SDS011;53159;55.152;36.614;2022-08-20T11:57:44;63.20;;;49.28;;
58055;SDS011;53159;55.152;36.614;2022-08-20T12:00:14;63.63;;;48.70;;
58055;SDS011;53159;55.152;36.614;2022-08-20T12:02:45;71.88;;;55.60;;
58055;SDS011;53159;55.152;36.614;2022-08-20T12:05:17;63.65;;;52.10;;
58055;SDS011;53159;55.152;36.614;2022-08-20T12:07:45;59.60;;;47.08;;
58055;SDS011;53159;55.152;36.614;2022-08-20T12:10:13;69.38;;;51.42;;
58055;SDS011;53159;55.152;36.614;2022-08-20T12:12:40;63.75;;;51.17;;
58055;SDS011;53159;55.152;36.614;2022-08-20T12:15:07;67.50;;;51.42;;
58055;SDS011;53159;55.152;36.614;2022-08-20T12:17:35;67.68;;;53.75;;
58055;SDS011;53159;55.152;36.614;2022-08-20T12:20:06;65.72;;;52.95;;
58055;SDS011;53159;55.152;36.614;2022-08-20T12:22:36;65.78;;;52.72;;
58055;SDS011;53159;55.152;36.614;2022-08-20T12:25:04;67.43;;;54.35;;
58055;SDS011;53159;55.152;36.614;2022-08-20T12:27:34;68.85;;;57.03;;
58055;SDS011;53159;55.152;36.614;2022-08-20T12:30:05;69.07;;;55.58;;
58055;SDS011;53159;55.152;36.614;2022-08-20T12:32:35;74.97;;;58.60;;
58055;SDS011;53159;55.152;36.614;2022-08-20T12:35:03;78.95;;;61.30;;
58055;SDS011;53159;55.152;36.614;2022-08-20T12:37:32;72.38;;;57.35;;
58055;SDS011;53159;55.152;36.614;2022-08-20T12:40:00;70.65;;;59.28;;
58055;SDS011;53159;55.152;36.614;2022-08-20T12:42:29;74.28;;;65.43;;
58055;SDS011;53159;55.152;36.614;2022-08-20T12:44:58;75.18;;;64.93;;
58055;SDS011;53159;55.152;36.614;2022-08-20T12:47:28;86.43;;;69.25;;
58055;SDS011;53159;55.152;36.614;2022-08-20T12:49:57;79.97;;;67.00;;
58055;SDS011;53159;55.152;36.614;2022-08-20T12:52:26;91.40;;;70.30;;
58055;SDS011;53159;55.152;36.614;2022-08-20T12:54:56;84.18;;;70.50;;
58055;SDS011;53159;55.152;36.614;2022-08-20T12:57:44;89.07;;;61.63;;
58055;SDS011;53159;55.152;36.614;2022-08-20T13:00:17;84.28;;;69.88;;
58055;SDS011;53159;55.152;36.614;2022-08-20T13:02:47;86.38;;;70.40;;
58055;SDS011;53159;55.152;36.614;2022-08-20T13:05:15;89.00;;;77.05;;
58055;SDS011;53159;55.152;36.614;2022-08-20T13:07:43;89.95;;;70.18;;
58055;SDS011;53159;55.152;36.614;2022-08-20T13:10:13;89.22;;;76.72;;
58055;SDS011;53159;55.152;36.614;2022-08-20T13:15:15;90.97;;;77.10;;
58055;SDS011;53159;55.152;36.614;2022-08-20T13:17:43;98.68;;;79.80;;
58055;SDS011;53159;55.152;36.614;2022-08-20T13:20:15;91.30;;;70.60;;
58055;SDS011;53159;55.152;36.614;2022-08-20T13:22:42;100.45;;;84.60;;
58055;SDS011;53159;55.152;36.614;2022-08-20T13:25:10;98.05;;;80.60;;
58055;SDS011;53159;55.152;36.614;2022-08-20T13:27:40;102.70;;;78.60;;
58055;SDS011;53159;55.152;36.614;2022-08-20T13:30:09;99.03;;;78.10;;
58055;SDS011;53159;55.152;36.614;2022-08-20T13:32:39;99.13;;;78.50;;
58055;SDS011;53159;55.152;36.614;2022-08-20T13:35:06;97.40;;;79.55;;
58055;SDS011;53159;55.152;36.614;2022-08-20T13:37:35;91.38;;;75.47;;
58055;SDS011;53159;55.152;36.614;2022-08-20T13:40:03;97.22;;;78.03;;
58055;SDS011;53159;55.152;36.614;2022-08-20T13:42:35;87.97;;;74.05;;
58055;SDS011;53159;55.152;36.614;2022-08-20T13:45:03;89.50;;;75.75;;
58055;SDS011;53159;55.152;36.614;2022-08-20T13:47:32;90.85;;;76.93;;
58055;SDS011;53159;55.152;36.614;2022-08-20T13:52:36;95.68;;;74.07;;
58055;SDS011;53159;55.152;36.614;2022-08-20T13:55:05;95.97;;;78.55;;
58055;SDS011;53159;55.152;36.614;2022-08-20T13:57:33;87.07;;;72.25;;
58055;SDS011;53159;55.152;36.614;2022-08-20T14:00:03;89.50;;;74.57;;
58055;SDS011;53159;55.152;36.614;2022-08-20T14:02:37;90.28;;;78.93;;
58055;SDS011;53159;55.152;36.614;2022-08-20T14:05:06;92.57;;;79.85;;
58055;SDS011;53159;55.152;36.614;2022-08-20T14:07:33;100.05;;;81.72;;
58055;SDS011;53159;55.152;36.614;2022-08-20T14:10:07;92.80;;;75.55;;
58055;SDS011;53159;55.152;36.614;2022-08-20T14:12:37;94.72;;;81.70;;
58055;SDS011;53159;55.152;36.614;2022-08-20T14:15:06;94.88;;;77.35;;
58055;SDS011;53159;55.152;36.614;2022-08-20T14:17:41;96.68;;;78.75;;
58055;SDS011;53159;55.152;36.614;2022-08-20T14:20:16;91.45;;;79.78;;
58055;SDS011;53159;55.152;36.614;2022-08-20T14:22:47;84.55;;;74.28;;
58055;SDS011;53159;55.152;36.614;2022-08-20T14:25:15;92.25;;;76.28;;
58055;SDS011;53159;55.152;36.614;2022-08-20T14:27:44;86.63;;;76.38;;
58055;SDS011;53159;55.152;36.614;2022-08-20T14:30:12;93.47;;;77.28;;
58055;SDS011;53159;55.152;36.614;2022-08-20T14:32:40;88.38;;;76.20;;
58055;SDS011;53159;55.152;36.614;2022-08-20T14:35:08;82.53;;;69.47;;
58055;SDS011;53159;55.152;36.614;2022-08-20T14:37:37;86.72;;;68.80;;
58055;SDS011;53159;55.152;36.614;2022-08-20T14:40:08;86.03;;;69.22;;
58055;SDS011;53159;55.152;36.614;2022-08-20T14:42:37;82.35;;;68.50;;
58055;SDS011;53159;55.152;36.614;2022-08-20T14:45:05;83.05;;;68.40;;
58055;SDS011;53159;55.152;36.614;2022-08-20T14:47:37;79.90;;;63.42;;
58055;SDS011;53159;55.152;36.614;2022-08-20T14:50:20;82.65;;;64.85;;